sensor_id;sensor_type;location;lat;lon;timestamp;pressure;altitude;pressure_sealevel;temperature;humidity
80397;BME280;69721;55.894;-3.052;2023-06-26T00:00:56;100600.48;;;15.94;51.76
80397;BME280;69721;55.894;-3.052;2023-06-26T00:03:21;100600.40;;;15.68;52.16
80397;BME280;69721;55.894;-3.052;2023-06-26T00:05:47;100593.71;;;16.54;49.70
80397;BME280;69721;55.894;-3.052;2023-06-26T00:08:12;100595.43;;;16.83;49.07
80397;BME280;69721;55.894;-3.052;2023-06-26T00:10:38;100601.23;;;16.87;48.74
80397;BME280;69721;55.894;-3.052;2023-06-26T00:13:03;100610.21;;;16.02;50.32
80397;BME280;69721;55.894;-3.052;2023-06-26T00:15:28;100603.69;;;16.17;49.87
80397;BME280;69721;55.894;-3.052;2023-06-26T00:17:54;100609.78;;;15.57;51.22
80397;BME280;69721;55.894;-3.052;2023-06-26T00:20:19;100610.08;;;15.74;50.27
80397;BME280;69721;55.894;-3.052;2023-06-26T00:22:45;100603.35;;;16.11;49.70
80397;BME280;69721;55.894;-3.052;2023-06-26T00:25:10;100607.26;;;16.10;50.80
80397;BME280;69721;55.894;-3.052;2023-06-26T00:27:36;100610.88;;;16.24;50.43
80397;BME280;69721;55.894;-3.052;2023-06-26T00:30:02;100612.38;;;16.40;50.29
80397;BME280;69721;55.894;-3.052;2023-06-26T00:32:27;100614.08;;;14.65;53.10
80397;BME280;69721;55.894;-3.052;2023-06-26T00:34:52;100612.34;;;15.98;51.13
80397;BME280;69721;55.894;-3.052;2023-06-26T00:37:18;100613.33;;;15.78;50.49
80397;BME280;69721;55.894;-3.052;2023-06-26T00:39:43;100610.33;;;16.50;49.30
80397;BME280;69721;55.894;-3.052;2023-06-26T00:42:09;100613.50;;;16.13;50.09
80397;BME280;69721;55.894;-3.052;2023-06-26T00:44:34;100614.47;;;15.80;50.10
80397;BME280;69721;55.894;-3.052;2023-06-26T00:47:00;100616.13;;;15.81;50.09
80397;BME280;69721;55.894;-3.052;2023-06-26T00:49:26;100625.43;;;15.00;51.99
80397;BME280;69721;55.894;-3.052;2023-06-26T00:51:50;100626.07;;;13.94;55.24
80397;BME280;69721;55.894;-3.052;2023-06-26T00:54:16;100629.49;;;14.41;53.97
80397;BME280;69721;55.894;-3.052;2023-06-26T00:56:42;100626.17;;;13.43;55.72
80397;BME280;69721;55.894;-3.052;2023-06-26T00:59:07;100630.23;;;14.22;53.81
80397;BME280;69721;55.894;-3.052;2023-06-26T01:01:32;100634.00;;;14.40;53.50
80397;BME280;69721;55.894;-3.052;2023-06-26T01:03:57;100640.11;;;13.79;53.67
80397;BME280;69721;55.894;-3.052;2023-06-26T01:06:24;100640.57;;;14.92;51.18
80397;BME280;69721;55.894;-3.052;2023-06-26T01:08:49;100642.75;;;14.56;51.86
80397;BME280;69721;55.894;-3.052;2023-06-26T01:11:14;100646.32;;;15.17;50.45
80397;BME280;69721;55.894;-3.052;2023-06-26T01:13:40;100648.85;;;15.09;50.45
80397;BME280;69721;55.894;-3.052;2023-06-26T01:16:05;100646.99;;;14.79;50.64
80397;BME280;69721;55.894;-3.052;2023-06-26T01:18:31;100651.45;;;14.14;51.41
80397;BME280;69721;55.894;-3.052;2023-06-26T01:20:56;100655.21;;;14.57;52.21
80397;BME280;69721;55.894;-3.052;2023-06-26T01:23:24;100651.24;;;14.84;50.82
80397;BME280;69721;55.894;-3.052;2023-06-26T01:28:12;100656.32;;;15.47;49.75
80397;BME280;69721;55.894;-3.052;2023-06-26T01:30:41;100659.94;;;14.27;53.00
80397;BME280;69721;55.894;-3.052;2023-06-26T01:33:02;100656.42;;;13.68;53.92
80397;BME280;69721;55.894;-3.052;2023-06-26T01:35:29;100661.33;;;13.15;55.00
80397;BME280;69721;55.894;-3.052;2023-06-26T01:37:53;100661.08;;;13.02;55.68
80397;BME280;69721;55.894;-3.052;2023-06-26T01:40:19;100664.45;;;13.93;54.22
80397;BME280;69721;55.894;-3.052;2023-06-26T01:42:44;100665.07;;;14.28;52.94
80397;BME280;69721;55.894;-3.052;2023-06-26T01:45:15;100663.57;;;14.00;52.89
80397;BME280;69721;55.894;-3.052;2023-06-26T01:47:36;100665.63;;;14.43;52.74
80397;BME280;69721;55.894;-3.052;2023-06-26T01:50:05;100665.08;;;14.89;52.16
80397;BME280;69721;55.894;-3.052;2023-06-26T01:52:28;100668.09;;;14.40;51.88
80397;BME280;69721;55.894;-3.052;2023-06-26T01:54:56;100669.15;;;14.63;51.43
80397;BME280;69721;55.894;-3.052;2023-06-26T01:57:17;100667.67;;;14.68;51.43
80397;BME280;69721;55.894;-3.052;2023-06-26T01:59:42;100668.51;;;15.44;49.97
80397;BME280;69721;55.894;-3.052;2023-06-26T02:02:07;100664.48;;;15.28;50.24
80397;BME280;69721;55.894;-3.052;2023-06-26T02:04:32;100670.20;;;14.95;50.83
80397;BME280;69721;55.894;-3.052;2023-06-26T02:06:58;100673.66;;;14.04;52.59
80397;BME280;69721;55.894;-3.052;2023-06-26T02:09:23;100673.26;;;14.59;51.13
80397;BME280;69721;55.894;-3.052;2023-06-26T02:11:48;100672.54;;;13.70;54.26
80397;BME280;69721;55.894;-3.052;2023-06-26T02:14:14;100674.28;;;14.22;52.51
80397;BME280;69721;55.894;-3.052;2023-06-26T02:16:39;100674.41;;;13.64;53.70
80397;BME280;69721;55.894;-3.052;2023-06-26T02:19:05;100671.48;;;13.48;53.28
80397;BME280;69721;55.894;-3.052;2023-06-26T02:21:30;100671.66;;;14.34;52.24
80397;BME280;69721;55.894;-3.052;2023-06-26T02:23:55;100674.81;;;13.83;53.54
80397;BME280;69721;55.894;-3.052;2023-06-26T02:26:21;100673.89;;;12.72;56.11
80397;BME280;69721;55.894;-3.052;2023-06-26T02:28:46;100678.01;;;13.47;54.55
80397;BME280;69721;55.894;-3.052;2023-06-26T02:31:12;100684.73;;;12.84;56.44
80397;BME280;69721;55.894;-3.052;2023-06-26T02:33:37;100687.23;;;12.94;55.56
80397;BME280;69721;55.894;-3.052;2023-06-26T02:36:03;100687.71;;;13.14;55.34
80397;BME280;69721;55.894;-3.052;2023-06-26T02:38:28;100684.68;;;13.79;53.69
80397;BME280;69721;55.894;-3.052;2023-06-26T02:40:53;100686.10;;;13.28;54.62
80397;BME280;69721;55.894;-3.052;2023-06-26T02:43:19;100689.69;;;13.00;56.05
80397;BME280;69721;55.894;-3.052;2023-06-26T02:45:44;100690.14;;;13.60;54.57
80397;BME280;69721;55.894;-3.052;2023-06-26T02:48:10;100691.62;;;12.73;56.58
80397;BME280;69721;55.894;-3.052;2023-06-26T02:50:35;100691.90;;;13.34;54.95
80397;BME280;69721;55.894;-3.052;2023-06-26T02:53:01;100692.97;;;12.69;56.37
80397;BME280;69721;55.894;-3.052;2023-06-26T02:55:27;100693.59;;;12.92;55.06
80397;BME280;69721;55.894;-3.052;2023-06-26T02:57:52;100698.44;;;13.04;55.38
80397;BME280;69721;55.894;-3.052;2023-06-26T03:00:18;100706.76;;;12.50;56.79
80397;BME280;69721;55.894;-3.052;2023-06-26T03:02:43;100700.73;;;13.00;54.98
80397;BME280;69721;55.894;-3.052;2023-06-26T03:05:08;100705.98;;;12.62;55.79
80397;BME280;69721;55.894;-3.052;2023-06-26T03:07:34;100706.29;;;14.20;52.57
80397;BME280;69721;55.894;-3.052;2023-06-26T03:09:59;100707.59;;;14.49;51.51
80397;BME280;69721;55.894;-3.052;2023-06-26T03:12:25;100709.68;;;14.35;51.35
80397;BME280;69721;55.894;-3.052;2023-06-26T03:14:50;100708.67;;;13.74;52.27
80397;BME280;69721;55.894;-3.052;2023-06-26T03:17:15;100711.46;;;13.82;51.72
80397;BME280;69721;55.894;-3.052;2023-06-26T03:19:41;100709.15;;;13.75;52.17
80397;BME280;69721;55.894;-3.052;2023-06-26T03:22:06;100708.85;;;13.64;52.51
80397;BME280;69721;55.894;-3.052;2023-06-26T03:24:32;100707.24;;;13.73;52.31
80397;BME280;69721;55.894;-3.052;2023-06-26T03:26:57;100712.17;;;13.66;53.04
80397;BME280;69721;55.894;-3.052;2023-06-26T03:29:23;100711.24;;;13.86;51.85
80397;BME280;69721;55.894;-3.052;2023-06-26T03:31:48;100712.12;;;14.09;51.67
80397;BME280;69721;55.894;-3.052;2023-06-26T03:34:13;100715.92;;;12.72;54.64
80397;BME280;69721;55.894;-3.052;2023-06-26T03:36:39;100718.82;;;12.86;54.92
80397;BME280;69721;55.894;-3.052;2023-06-26T03:39:04;100724.52;;;11.88;56.88
80397;BME280;69721;55.894;-3.052;2023-06-26T03:41:30;100721.68;;;13.01;54.23
80397;BME280;69721;55.894;-3.052;2023-06-26T03:43:55;100724.83;;;13.54;53.53
80397;BME280;69721;55.894;-3.052;2023-06-26T03:46:21;100725.63;;;13.76;52.90
80397;BME280;69721;55.894;-3.052;2023-06-26T03:48:46;100731.33;;;13.46;53.22
80397;BME280;69721;55.894;-3.052;2023-06-26T03:51:12;100728.79;;;14.04;52.02
80397;BME280;69721;55.894;-3.052;2023-06-26T03:53:37;100730.22;;;13.76;52.18
80397;BME280;69721;55.894;-3.052;2023-06-26T03:56:03;100729.37;;;13.29;52.67
80397;BME280;69721;55.894;-3.052;2023-06-26T03:58:28;100722.88;;;13.96;52.32
80397;BME280;69721;55.894;-3.052;2023-06-26T04:00:54;100721.34;;;14.19;51.93
80397;BME280;69721;55.894;-3.052;2023-06-26T04:03:19;100722.23;;;13.91;51.56
80397;BME280;69721;55.894;-3.052;2023-06-26T04:05:45;100721.61;;;13.32;53.86
80397;BME280;69721;55.894;-3.052;2023-06-26T04:08:10;100732.20;;;12.72;54.93
80397;BME280;69721;55.894;-3.052;2023-06-26T04:10:36;100729.70;;;13.14;54.78
80397;BME280;69721;55.894;-3.052;2023-06-26T04:13:01;100738.43;;;13.08;54.70
80397;BME280;69721;55.894;-3.052;2023-06-26T04:15:27;100741.98;;;11.26;58.75
80397;BME280;69721;55.894;-3.052;2023-06-26T04:17:52;100743.65;;;11.57;59.51
80397;BME280;69721;55.894;-3.052;2023-06-26T04:20:17;100744.54;;;12.59;56.48
80397;BME280;69721;55.894;-3.052;2023-06-26T04:22:43;100749.71;;;11.62;59.55
80397;BME280;69721;55.894;-3.052;2023-06-26T04:25:08;100751.11;;;11.74;59.31
80397;BME280;69721;55.894;-3.052;2023-06-26T04:27:34;100747.01;;;13.05;57.15
80397;BME280;69721;55.894;-3.052;2023-06-26T04:29:59;100746.73;;;11.73;59.19
80397;BME280;69721;55.894;-3.052;2023-06-26T04:32:24;100748.13;;;12.28;58.42
80397;BME280;69721;55.894;-3.052;2023-06-26T04:34:51;100745.94;;;12.37;58.83
80397;BME280;69721;55.894;-3.052;2023-06-26T04:37:16;100746.29;;;13.17;57.27
80397;BME280;69721;55.894;-3.052;2023-06-26T04:39:42;100749.71;;;12.57;58.09
80397;BME280;69721;55.894;-3.052;2023-06-26T04:42:07;100750.35;;;12.41;58.01
80397;BME280;69721;55.894;-3.052;2023-06-26T04:44:33;100752.73;;;12.31;58.24
80397;BME280;69721;55.894;-3.052;2023-06-26T04:46:58;100752.76;;;13.06;56.89
80397;BME280;69721;55.894;-3.052;2023-06-26T04:49:23;100753.23;;;12.96;57.15
80397;BME280;69721;55.894;-3.052;2023-06-26T04:51:49;100758.62;;;12.46;58.32
80397;BME280;69721;55.894;-3.052;2023-06-26T04:54:14;100759.21;;;12.72;58.66
80397;BME280;69721;55.894;-3.052;2023-06-26T04:56:40;100761.33;;;12.73;58.15
80397;BME280;69721;55.894;-3.052;2023-06-26T04:59:05;100763.23;;;12.92;58.04
80397;BME280;69721;55.894;-3.052;2023-06-26T05:01:30;100762.55;;;12.46;59.04
80397;BME280;69721;55.894;-3.052;2023-06-26T05:03:55;100763.69;;;12.12;59.76
80397;BME280;69721;55.894;-3.052;2023-06-26T05:06:21;100766.98;;;13.40;57.36
80397;BME280;69721;55.894;-3.052;2023-06-26T05:08:46;100770.04;;;13.42;57.39
80397;BME280;69721;55.894;-3.052;2023-06-26T05:11:12;100775.36;;;13.07;58.43
80397;BME280;69721;55.894;-3.052;2023-06-26T05:13:37;100775.97;;;12.87;58.35
80397;BME280;69721;55.894;-3.052;2023-06-26T05:16:03;100770.97;;;14.66;54.28
80397;BME280;69721;55.894;-3.052;2023-06-26T05:18:28;100771.05;;;14.63;53.86
80397;BME280;69721;55.894;-3.052;2023-06-26T05:20:54;100770.73;;;14.67;54.22
80397;BME280;69721;55.894;-3.052;2023-06-26T05:23:19;100769.69;;;13.30;55.68
80397;BME280;69721;55.894;-3.052;2023-06-26T05:25:45;100767.35;;;14.37;54.37
80397;BME280;69721;55.894;-3.052;2023-06-26T05:28:11;100771.00;;;12.52;58.53
80397;BME280;69721;55.894;-3.052;2023-06-26T05:30:36;100768.07;;;13.49;57.75
80397;BME280;69721;55.894;-3.052;2023-06-26T05:33:02;100774.76;;;12.78;58.47
80397;BME280;69721;55.894;-3.052;2023-06-26T05:35:29;100772.89;;;13.30;58.24
80397;BME280;69721;55.894;-3.052;2023-06-26T05:37:52;100772.53;;;13.65;57.05
80397;BME280;69721;55.894;-3.052;2023-06-26T05:40:18;100773.54;;;12.96;58.73
80397;BME280;69721;55.894;-3.052;2023-06-26T05:42:44;100771.67;;;12.57;60.73
80397;BME280;69721;55.894;-3.052;2023-06-26T05:45:10;100776.40;;;12.90;59.52
80397;BME280;69721;55.894;-3.052;2023-06-26T05:47:34;100774.81;;;12.67;59.87
80397;BME280;69721;55.894;-3.052;2023-06-26T05:50:00;100768.56;;;13.22;57.84
80397;BME280;69721;55.894;-3.052;2023-06-26T05:52:25;100774.14;;;13.69;57.78
80397;BME280;69721;55.894;-3.052;2023-06-26T05:54:52;100775.22;;;13.42;57.67
80397;BME280;69721;55.894;-3.052;2023-06-26T05:57:17;100781.37;;;12.68;59.29
80397;BME280;69721;55.894;-3.052;2023-06-26T05:59:43;100782.30;;;12.62;60.43
80397;BME280;69721;55.894;-3.052;2023-06-26T06:02:07;100773.92;;;14.30;56.40
80397;BME280;69721;55.894;-3.052;2023-06-26T06:04:33;100776.31;;;14.06;56.41
80397;BME280;69721;55.894;-3.052;2023-06-26T06:06:58;100784.15;;;12.64;58.29
80397;BME280;69721;55.894;-3.052;2023-06-26T06:09:24;100783.35;;;14.03;56.39
80397;BME280;69721;55.894;-3.052;2023-06-26T06:11:49;100786.74;;;13.91;56.26
80397;BME280;69721;55.894;-3.052;2023-06-26T06:14:14;100784.56;;;14.47;55.58
80397;BME280;69721;55.894;-3.052;2023-06-26T06:16:40;100788.25;;;13.95;56.20
80397;BME280;69721;55.894;-3.052;2023-06-26T06:19:06;100789.08;;;13.49;57.47
80397;BME280;69721;55.894;-3.052;2023-06-26T06:21:32;100791.43;;;13.53;56.85
80397;BME280;69721;55.894;-3.052;2023-06-26T06:23:56;100787.50;;;13.79;57.77
80397;BME280;69721;55.894;-3.052;2023-06-26T06:26:22;100788.63;;;14.32;55.88
80397;BME280;69721;55.894;-3.052;2023-06-26T06:28:47;100788.94;;;13.45;56.76
80397;BME280;69721;55.894;-3.052;2023-06-26T06:31:13;100788.35;;;13.63;56.14
80397;BME280;69721;55.894;-3.052;2023-06-26T06:33:39;100789.76;;;13.82;56.16
80397;BME280;69721;55.894;-3.052;2023-06-26T06:36:05;100790.01;;;14.37;55.03
80397;BME280;69721;55.894;-3.052;2023-06-26T06:38:30;100787.06;;;14.86;54.33
80397;BME280;69721;55.894;-3.052;2023-06-26T06:40:55;100786.18;;;15.81;52.05
80397;BME280;69721;55.894;-3.052;2023-06-26T06:43:21;100787.58;;;16.07;51.54
80397;BME280;69721;55.894;-3.052;2023-06-26T06:45:46;100797.44;;;15.47;52.60
80397;BME280;69721;55.894;-3.052;2023-06-26T06:48:11;100793.62;;;15.22;52.30
80397;BME280;69721;55.894;-3.052;2023-06-26T06:50:37;100805.42;;;15.08;52.65
80397;BME280;69721;55.894;-3.052;2023-06-26T06:53:03;100806.78;;;13.43;56.19
80397;BME280;69721;55.894;-3.052;2023-06-26T06:55:28;100820.94;;;13.25;57.56
80397;BME280;69721;55.894;-3.052;2023-06-26T06:57:54;100818.76;;;12.62;59.07
80397;BME280;69721;55.894;-3.052;2023-06-26T07:00:19;100819.22;;;12.49;58.66
80397;BME280;69721;55.894;-3.052;2023-06-26T07:02:46;100819.61;;;12.78;58.62
80397;BME280;69721;55.894;-3.052;2023-06-26T07:05:10;100814.51;;;12.86;58.85
80397;BME280;69721;55.894;-3.052;2023-06-26T07:07:37;100823.48;;;13.16;57.50
80397;BME280;69721;55.894;-3.052;2023-06-26T07:10:03;100827.47;;;12.91;57.32
80397;BME280;69721;55.894;-3.052;2023-06-26T07:12:26;100821.33;;;13.24;56.62
80397;BME280;69721;55.894;-3.052;2023-06-26T07:14:52;100823.35;;;12.51;59.31
80397;BME280;69721;55.894;-3.052;2023-06-26T07:17:17;100815.81;;;14.10;54.26
80397;BME280;69721;55.894;-3.052;2023-06-26T07:19:43;100838.91;;;13.43;55.53
80397;BME280;69721;55.894;-3.052;2023-06-26T07:22:08;100833.28;;;12.88;57.13
80397;BME280;69721;55.894;-3.052;2023-06-26T07:24:33;100838.90;;;13.01;57.38
80397;BME280;69721;55.894;-3.052;2023-06-26T07:26:59;100833.29;;;13.02;57.03
80397;BME280;69721;55.894;-3.052;2023-06-26T07:29:25;100830.78;;;13.47;55.87
80397;BME280;69721;55.894;-3.052;2023-06-26T07:31:50;100828.50;;;14.04;54.43
80397;BME280;69721;55.894;-3.052;2023-06-26T07:34:16;100827.09;;;14.78;52.35
80397;BME280;69721;55.894;-3.052;2023-06-26T07:36:41;100830.69;;;14.77;51.36
80397;BME280;69721;55.894;-3.052;2023-06-26T07:39:07;100829.55;;;16.57;49.31
80397;BME280;69721;55.894;-3.052;2023-06-26T07:41:32;100826.81;;;16.67;47.13
80397;BME280;69721;55.894;-3.052;2023-06-26T07:43:58;100831.97;;;15.66;48.91
80397;BME280;69721;55.894;-3.052;2023-06-26T07:46:23;100828.19;;;17.53;45.90
80397;BME280;69721;55.894;-3.052;2023-06-26T07:48:48;100828.68;;;16.39;47.33
80397;BME280;69721;55.894;-3.052;2023-06-26T07:51:13;100821.06;;;16.96;46.65
80397;BME280;69721;55.894;-3.052;2023-06-26T07:53:39;100825.87;;;15.46;49.77
80397;BME280;69721;55.894;-3.052;2023-06-26T07:56:05;100821.12;;;15.16;50.39
80397;BME280;69721;55.894;-3.052;2023-06-26T07:58:32;100829.47;;;15.66;49.98
80397;BME280;69721;55.894;-3.052;2023-06-26T08:00:57;100821.90;;;15.81;48.24
80397;BME280;69721;55.894;-3.052;2023-06-26T08:03:22;100828.80;;;15.47;48.32
80397;BME280;69721;55.894;-3.052;2023-06-26T08:05:48;100829.37;;;16.35;45.67
80397;BME280;69721;55.894;-3.052;2023-06-26T08:08:13;100829.00;;;16.66;46.04
80397;BME280;69721;55.894;-3.052;2023-06-26T08:10:39;100824.73;;;15.67;47.60
80397;BME280;69721;55.894;-3.052;2023-06-26T08:13:05;100823.88;;;16.02;46.86
80397;BME280;69721;55.894;-3.052;2023-06-26T08:15:30;100825.95;;;15.64;47.92
80397;BME280;69721;55.894;-3.052;2023-06-26T08:17:56;100834.74;;;15.80;47.38
80397;BME280;69721;55.894;-3.052;2023-06-26T08:20:21;100836.99;;;16.58;44.63
80397;BME280;69721;55.894;-3.052;2023-06-26T08:22:46;100833.10;;;17.14;43.83
80397;BME280;69721;55.894;-3.052;2023-06-26T08:25:12;100841.40;;;17.26;45.12
80397;BME280;69721;55.894;-3.052;2023-06-26T08:27:37;100841.91;;;16.32;46.60
80397;BME280;69721;55.894;-3.052;2023-06-26T08:30:04;100844.78;;;15.62;46.79
80397;BME280;69721;55.894;-3.052;2023-06-26T08:32:29;100846.36;;;15.90;46.30
80397;BME280;69721;55.894;-3.052;2023-06-26T08:34:54;100847.32;;;16.25;45.32
80397;BME280;69721;55.894;-3.052;2023-06-26T08:37:20;100848.66;;;16.75;44.55
80397;BME280;69721;55.894;-3.052;2023-06-26T08:39:45;100848.79;;;16.32;46.03
80397;BME280;69721;55.894;-3.052;2023-06-26T08:42:10;100845.61;;;16.18;46.55
80397;BME280;69721;55.894;-3.052;2023-06-26T08:44:36;100844.00;;;16.08;46.52
80397;BME280;69721;55.894;-3.052;2023-06-26T08:47:01;100840.97;;;16.17;45.90
80397;BME280;69721;55.894;-3.052;2023-06-26T08:49:37;100834.33;;;16.21;44.54
80397;BME280;69721;55.894;-3.052;2023-06-26T08:51:59;100839.19;;;16.36;45.41
80397;BME280;69721;55.894;-3.052;2023-06-26T08:54:17;100838.95;;;17.45;43.89
80397;BME280;69721;55.894;-3.052;2023-06-26T08:56:44;100847.76;;;16.35;45.06
80397;BME280;69721;55.894;-3.052;2023-06-26T08:59:08;100844.15;;;16.26;44.39
80397;BME280;69721;55.894;-3.052;2023-06-26T09:01:33;100838.24;;;16.30;44.20
80397;BME280;69721;55.894;-3.052;2023-06-26T09:03:59;100839.77;;;16.46;44.51
80397;BME280;69721;55.894;-3.052;2023-06-26T09:06:24;100843.70;;;16.85;43.50
80397;BME280;69721;55.894;-3.052;2023-06-26T09:08:49;100848.65;;;16.09;43.92
80397;BME280;69721;55.894;-3.052;2023-06-26T09:11:15;100847.53;;;16.78;42.93
80397;BME280;69721;55.894;-3.052;2023-06-26T09:13:40;100857.78;;;17.28;41.63
80397;BME280;69721;55.894;-3.052;2023-06-26T09:16:07;100847.08;;;15.77;44.44
80397;BME280;69721;55.894;-3.052;2023-06-26T09:18:32;100844.59;;;16.30;44.45
80397;BME280;69721;55.894;-3.052;2023-06-26T09:20:56;100853.73;;;17.00;42.64
80397;BME280;69721;55.894;-3.052;2023-06-26T09:23:22;100855.40;;;15.94;43.81
80397;BME280;69721;55.894;-3.052;2023-06-26T09:25:48;100854.66;;;15.96;42.99
80397;BME280;69721;55.894;-3.052;2023-06-26T09:28:13;100853.96;;;15.60;44.35
80397;BME280;69721;55.894;-3.052;2023-06-26T09:30:38;100860.58;;;15.26;45.30
80397;BME280;69721;55.894;-3.052;2023-06-26T09:33:13;100874.96;;;14.82;45.84
80397;BME280;69721;55.894;-3.052;2023-06-26T09:35:28;100886.74;;;14.14;48.14
80397;BME280;69721;55.894;-3.052;2023-06-26T09:37:54;100895.73;;;13.74;55.26
80397;BME280;69721;55.894;-3.052;2023-06-26T09:40:19;100903.33;;;13.39;56.18
80397;BME280;69721;55.894;-3.052;2023-06-26T09:42:45;100899.07;;;12.58;57.88
80397;BME280;69721;55.894;-3.052;2023-06-26T09:45:19;100893.07;;;14.19;56.17
80397;BME280;69721;55.894;-3.052;2023-06-26T09:47:36;100899.07;;;13.17;56.07
80397;BME280;69721;55.894;-3.052;2023-06-26T09:50:03;100899.20;;;14.37;55.08
80397;BME280;69721;55.894;-3.052;2023-06-26T09:52:27;100902.22;;;14.40;55.03
80397;BME280;69721;55.894;-3.052;2023-06-26T09:57:19;100906.17;;;15.74;51.96
80397;BME280;69721;55.894;-3.052;2023-06-26T09:59:45;100909.98;;;15.38;52.99
80397;BME280;69721;55.894;-3.052;2023-06-26T10:02:09;100909.11;;;15.50;52.94
80397;BME280;69721;55.894;-3.052;2023-06-26T10:04:35;100910.90;;;15.27;52.66
80397;BME280;69721;55.894;-3.052;2023-06-26T10:07:01;100918.07;;;13.67;54.84
80397;BME280;69721;55.894;-3.052;2023-06-26T10:09:26;100914.41;;;13.94;55.44
80397;BME280;69721;55.894;-3.052;2023-06-26T10:11:55;100916.49;;;14.73;54.58
80397;BME280;69721;55.894;-3.052;2023-06-26T10:14:16;100916.74;;;15.13;54.05
80397;BME280;69721;55.894;-3.052;2023-06-26T10:16:43;100922.70;;;15.65;53.71
80397;BME280;69721;55.894;-3.052;2023-06-26T10:19:08;100937.69;;;14.65;54.43
80397;BME280;69721;55.894;-3.052;2023-06-26T10:21:34;100946.40;;;14.79;54.90
80397;BME280;69721;55.894;-3.052;2023-06-26T10:23:58;100953.90;;;13.04;56.13
80397;BME280;69721;55.894;-3.052;2023-06-26T10:26:24;100955.24;;;13.85;58.31
80397;BME280;69721;55.894;-3.052;2023-06-26T10:28:50;100950.32;;;14.94;56.92
80397;BME280;69721;55.894;-3.052;2023-06-26T10:31:14;100943.81;;;15.48;55.80
80397;BME280;69721;55.894;-3.052;2023-06-26T10:33:40;100951.08;;;15.53;54.84
80397;BME280;69721;55.894;-3.052;2023-06-26T10:36:14;100951.34;;;15.74;51.97
80397;BME280;69721;55.894;-3.052;2023-06-26T10:40:55;100949.57;;;15.98;53.57
80397;BME280;69721;55.894;-3.052;2023-06-26T10:43:21;100947.19;;;15.73;54.24
80397;BME280;69721;55.894;-3.052;2023-06-26T10:45:47;100943.23;;;16.63;52.40
80397;BME280;69721;55.894;-3.052;2023-06-26T10:48:14;100949.41;;;17.17;54.39
80397;BME280;69721;55.894;-3.052;2023-06-26T10:50:37;100950.38;;;17.73;52.60
80397;BME280;69721;55.894;-3.052;2023-06-26T10:53:10;100949.54;;;18.40;50.55
80397;BME280;69721;55.894;-3.052;2023-06-26T10:55:28;100943.31;;;18.37;48.96
80397;BME280;69721;55.894;-3.052;2023-06-26T10:57:55;100947.53;;;16.98;48.38
80397;BME280;69721;55.894;-3.052;2023-06-26T11:00:18;100949.62;;;17.54;50.98
80397;BME280;69721;55.894;-3.052;2023-06-26T11:02:49;100943.89;;;18.63;49.23
80397;BME280;69721;55.894;-3.052;2023-06-26T11:05:09;100958.01;;;17.60;46.65
80397;BME280;69721;55.894;-3.052;2023-06-26T11:07:34;100953.74;;;17.05;50.61
80397;BME280;69721;55.894;-3.052;2023-06-26T11:10:01;100959.64;;;15.55;52.76
80397;BME280;69721;55.894;-3.052;2023-06-26T11:12:35;100967.62;;;16.08;51.41
80397;BME280;69721;55.894;-3.052;2023-06-26T11:14:51;100963.84;;;16.28;49.86
80397;BME280;69721;55.894;-3.052;2023-06-26T11:17:19;100966.41;;;15.74;51.86
80397;BME280;69721;55.894;-3.052;2023-06-26T11:19:43;100976.83;;;15.45;54.10
80397;BME280;69721;55.894;-3.052;2023-06-26T11:22:07;100968.20;;;16.13;52.13
80397;BME280;69721;55.894;-3.052;2023-06-26T11:24:33;100961.06;;;16.62;52.51
80397;BME280;69721;55.894;-3.052;2023-06-26T11:27:01;100954.77;;;17.45;52.13
80397;BME280;69721;55.894;-3.052;2023-06-26T11:29:23;100959.86;;;16.89;49.37
80397;BME280;69721;55.894;-3.052;2023-06-26T11:31:58;100957.72;;;17.28;50.59
80397;BME280;69721;55.894;-3.052;2023-06-26T11:34:14;100945.58;;;17.15;48.51
80397;BME280;69721;55.894;-3.052;2023-06-26T11:36:40;100953.15;;;17.55;48.03
80397;BME280;69721;55.894;-3.052;2023-06-26T11:39:06;100947.70;;;18.22;50.62
80397;BME280;69721;55.894;-3.052;2023-06-26T11:41:32;100951.99;;;17.27;46.37
80397;BME280;69721;55.894;-3.052;2023-06-26T11:43:59;100952.65;;;17.90;44.77
80397;BME280;69721;55.894;-3.052;2023-06-26T11:46:22;100946.79;;;17.77;44.18
80397;BME280;69721;55.894;-3.052;2023-06-26T11:48:47;100955.66;;;18.03;44.66
80397;BME280;69721;55.894;-3.052;2023-06-26T11:51:13;100963.13;;;17.77;45.56
80397;BME280;69721;55.894;-3.052;2023-06-26T11:53:39;100955.25;;;18.06;44.78
80397;BME280;69721;55.894;-3.052;2023-06-26T11:56:08;100948.80;;;19.58;42.19
80397;BME280;69721;55.894;-3.052;2023-06-26T11:58:28;100961.79;;;19.75;42.30
80397;BME280;69721;55.894;-3.052;2023-06-26T12:00:53;100955.29;;;19.26;41.32
80397;BME280;69721;55.894;-3.052;2023-06-26T12:03:19;100955.06;;;19.79;41.02
80397;BME280;69721;55.894;-3.052;2023-06-26T12:05:44;100952.18;;;18.94;41.75
80397;BME280;69721;55.894;-3.052;2023-06-26T12:08:09;100972.71;;;17.68;43.36
80397;BME280;69721;55.894;-3.052;2023-06-26T12:10:35;100976.93;;;17.02;44.95
80397;BME280;69721;55.894;-3.052;2023-06-26T12:13:01;100975.78;;;15.89;44.77
80397;BME280;69721;55.894;-3.052;2023-06-26T12:15:28;100991.77;;;16.34;48.00
80397;BME280;69721;55.894;-3.052;2023-06-26T12:17:52;101007.03;;;14.99;49.55
80397;BME280;69721;55.894;-3.052;2023-06-26T12:20:19;101010.57;;;14.72;53.49
80397;BME280;69721;55.894;-3.052;2023-06-26T12:22:42;101013.38;;;14.52;53.47
80397;BME280;69721;55.894;-3.052;2023-06-26T12:25:08;101016.72;;;14.40;54.06
80397;BME280;69721;55.894;-3.052;2023-06-26T12:27:33;101013.05;;;15.26;55.70
80397;BME280;69721;55.894;-3.052;2023-06-26T12:29:58;101008.55;;;16.52;52.85
80397;BME280;69721;55.894;-3.052;2023-06-26T12:32:25;101010.00;;;16.96;49.84
80397;BME280;69721;55.894;-3.052;2023-06-26T12:34:50;101012.18;;;16.31;50.05
80397;BME280;69721;55.894;-3.052;2023-06-26T12:37:15;101009.64;;;16.97;49.12